Time;durP1;ratioP1;P1;durP2;ratioP2;P2;SDS_P1;SDS_P2;PMS_P1;PMS_P2;Temp;Humidity;BMP_temperature;BMP_pressure;BME280_temperature;BME280_humidity;BME280_pressure;Samples;Min_cycle;Max_cycle;Signal;HPM_P1;HPM_P2
2022/11/19 00:01:06;;;;;;;0.10;0.10;;;8.80;99.90;;;;;;5105051;28;20202;-85
2022/11/19 00:03:33;;;;;;;0.00;0.00;;;8.90;99.90;;;;;;5100348;28;20173;-84
2022/11/19 00:06:11;;;;;;;0.10;0.10;;;8.90;99.90;;;;;;5101349;28;20293;-85
2022/11/19 00:08:38;;;;;;;0.10;0.10;;;9.00;99.90;;;;;;5101180;28;20185;-85
2022/11/19 00:11:08;;;;;;;0.10;0.10;;;9.00;99.90;;;;;;5103314;28;20203;-85
2022/11/19 00:13:34;;;;;;;0.10;0.10;;;8.90;99.90;;;;;;5100647;28;20183;-85
2022/11/19 00:16:01;;;;;;;0.07;0.07;;;8.60;99.90;;;;;;5092397;28;20188;-85
2022/11/19 00:18:27;;;;;;;0.10;0.10;;;8.50;99.90;;;;;;5100546;28;20238;-85
2022/11/19 00:20:54;;;;;;;0.10;0.10;;;8.40;99.90;;;;;;5090887;28;20211;-84
2022/11/19 00:23:20;;;;;;;0.10;0.10;;;8.30;99.90;;;;;;5095656;28;20703;-84
2022/11/19 00:25:45;;;;;;;0.10;0.10;;;8.40;99.90;;;;;;5098116;28;20175;-84
2022/11/19 00:28:11;;;;;;;0.10;0.10;;;8.30;99.90;;;;;;5109459;28;20189;-84
2022/11/19 00:30:36;;;;;;;0.10;0.10;;;8.30;99.90;;;;;;5095926;28;20190;-85
2022/11/19 00:33:02;;;;;;;0.10;0.10;;;8.20;99.90;;;;;;5097959;28;20571;-85
2022/11/19 00:35:27;;;;;;;0.00;0.00;;;8.20;99.90;;;;;;5090765;28;20186;-85
2022/11/19 00:37:53;;;;;;;0.10;0.10;;;8.10;99.90;;;;;;5072942;28;20271;-85
2022/11/19 00:40:18;;;;;;;0.10;0.10;;;8.10;99.90;;;;;;5105489;28;20201;-85
2022/11/19 00:43:45;;;;;;;0.10;0.10;;;8.30;99.90;;;;;;5086308;28;20220;-85
2022/11/19 00:45:30;;;;;;;0.10;0.10;;;8.40;99.90;;;;;;5105256;28;20182;-85
2022/11/19 00:47:56;;;;;;;0.10;0.10;;;8.40;99.90;;;;;;5086389;28;20274;-85
2022/11/19 00:50:21;;;;;;;0.10;0.10;;;8.30;99.90;;;;;;5097032;28;20869;-85
2022/11/19 00:52:47;;;;;;;0.10;0.10;;;8.10;99.90;;;;;;5099792;28;20176;-85
2022/11/19 00:55:12;;;;;;;0.10;0.10;;;7.70;99.90;;;;;;5103056;28;20177;-85
2022/11/19 00:57:38;;;;;;;0.10;0.10;;;7.80;99.90;;;;;;5096407;28;20200;-84
2022/11/19 01:00:03;;;;;;;0.00;0.00;;;8.00;99.90;;;;;;5093156;28;20545;-85
2022/11/19 01:02:29;;;;;;;0.10;0.10;;;8.10;99.90;;;;;;5094881;28;20203;-85
2022/11/19 01:04:55;;;;;;;0.07;0.07;;;7.60;99.90;;;;;;5093054;28;20330;-84
2022/11/19 01:07:20;;;;;;;0.00;0.00;;;7.30;99.90;;;;;;5084672;28;20170;-84
2022/11/19 01:09:46;;;;;;;0.10;0.10;;;7.20;99.90;;;;;;5104278;28;20189;-85
2022/11/19 01:12:11;;;;;;;0.03;0.03;;;7.10;99.90;;;;;;5091810;28;20241;-85
2022/11/19 01:14:37;;;;;;;0.10;0.10;;;7.20;99.90;;;;;;5099672;28;20181;-85
2022/11/19 01:17:02;;;;;;;0.10;0.10;;;6.90;99.90;;;;;;5086296;28;20188;-85
2022/11/19 01:19:28;;;;;;;0.10;0.10;;;7.10;99.90;;;;;;5101311;28;20194;-85
2022/11/19 01:21:53;;;;;;;0.00;0.00;;;6.90;99.90;;;;;;5105392;28;20196;-84
2022/11/19 01:24:19;;;;;;;0.10;0.10;;;6.90;99.90;;;;;;5100492;28;20633;-85
2022/11/19 01:26:45;;;;;;;0.07;0.07;;;6.80;99.90;;;;;;5095492;28;20168;-84
2022/11/19 01:29:10;;;;;;;0.00;0.00;;;6.70;99.90;;;;;;5089222;28;20172;-84
2022/11/19 01:31:37;;;;;;;0.10;0.10;;;6.90;99.90;;;;;;5091665;28;20201;-84
2022/11/19 01:34:02;;;;;;;0.10;0.10;;;6.80;99.90;;;;;;5096322;28;20222;-84
2022/11/19 01:36:29;;;;;;;0.10;0.10;;;7.00;99.90;;;;;;5102105;28;20192;-85
2022/11/19 01:38:55;;;;;;;0.00;0.00;;;7.10;99.90;;;;;;5106263;28;20258;-86
2022/11/19 01:41:21;;;;;;;0.10;0.10;;;6.90;99.90;;;;;;5089357;28;20196;-84
2022/11/19 01:43:53;;;;;;;0.10;0.10;;;6.90;99.90;;;;;;5108680;28;20597;-85
2022/11/19 01:46:25;;;;;;;0.10;0.10;;;6.90;99.90;;;;;;5097404;28;20661;-85
2022/11/19 01:48:56;;;;;;;0.10;0.10;;;6.80;99.90;;;;;;5105357;28;20179;-85
2022/11/19 01:51:27;;;;;;;0.00;0.00;;;6.80;99.90;;;;;;5093601;28;20573;-85
2022/11/19 01:53:56;;;;;;;0.10;0.10;;;7.00;99.90;;;;;;5094749;28;20260;-85
2022/11/19 01:56:22;;;;;;;0.00;0.00;;;7.10;99.90;;;;;;5110288;28;20251;-85
2022/11/19 01:58:56;;;;;;;0.10;0.10;;;7.00;99.90;;;;;;5091685;28;20187;-84
2022/11/19 02:01:22;;;;;;;0.10;0.10;;;7.20;99.90;;;;;;5100547;28;20202;-85
2022/11/19 02:03:48;;;;;;;0.10;0.10;;;7.30;99.90;;;;;;5090115;28;20183;-84
2022/11/19 02:06:13;;;;;;;0.10;0.10;;;7.40;99.90;;;;;;5101163;28;20249;-85
2022/11/19 02:08:43;;;;;;;0.10;0.10;;;7.50;99.90;;;;;;5102199;28;20650;-85
2022/11/19 02:11:28;;;;;;;0.00;0.00;;;7.70;99.90;;;;;;5098366;28;20207;-85
2022/11/19 02:14:35;;;;;;;0.03;0.03;;;7.70;99.90;;;;;;5088784;28;20550;-84
2022/11/19 02:17:24;;;;;;;0.10;0.10;;;7.80;99.90;;;;;;5097332;28;20183;-85
2022/11/19 02:20:13;;;;;;;0.00;0.00;;;7.90;99.90;;;;;;5099732;28;20586;-84
2022/11/19 02:23:16;;;;;;;0.10;0.10;;;7.90;99.90;;;;;;5091062;28;20210;-85
2022/11/19 02:26:01;;;;;;;0.10;0.10;;;7.90;99.90;;;;;;5092028;28;20178;-85
2022/11/19 02:28:46;;;;;;;0.10;0.10;;;7.90;99.90;;;;;;5095892;28;20188;-84
2022/11/19 02:31:37;;;;;;;0.10;0.10;;;7.90;99.90;;;;;;5097651;28;20197;-85
2022/11/19 02:34:13;;;;;;;0.10;0.10;;;7.90;99.90;;;;;;5089351;28;20180;-84
2022/11/19 02:36:53;;;;;;;0.10;0.10;;;7.90;99.90;;;;;;5093504;28;20264;-84
2022/11/19 02:39:26;;;;;;;0.10;0.10;;;7.60;99.90;;;;;;5094639;28;20172;-85
2022/11/19 02:42:06;;;;;;;0.10;0.10;;;7.00;99.90;;;;;;5093455;28;20222;-84
2022/11/19 02:47:21;;;;;;;0.10;0.10;;;6.80;99.90;;;;;;5101432;28;20260;-84
2022/11/19 02:49:50;;;;;;;0.10;0.10;;;6.90;99.90;;;;;;5092191;28;20686;-85
2022/11/19 02:52:16;;;;;;;0.10;0.10;;;6.90;99.90;;;;;;5096776;28;20722;-83
2022/11/19 02:54:42;;;;;;;0.00;0.00;;;6.80;99.90;;;;;;5097939;28;20250;-84
2022/11/19 02:57:12;;;;;;;0.00;0.00;;;6.70;99.90;;;;;;5097544;28;20739;-84
2022/11/19 03:05:23;;;;;;;0.00;0.00;;;6.90;99.90;;;;;;5102062;28;20196;-85
2022/11/19 03:07:49;;;;;;;0.10;0.10;;;6.80;99.90;;;;;;5092310;28;20559;-84
2022/11/19 03:10:18;;;;;;;0.10;0.10;;;6.90;99.90;;;;;;5097964;28;20196;-85
2022/11/19 03:16:40;;;;;;;0.20;0.20;;;7.00;99.90;;;;;;5092054;28;20206;-84
2022/11/19 03:19:03;;;;;;;0.10;0.10;;;6.40;99.90;;;;;;5081763;28;20265;-85
2022/11/19 03:21:41;;;;;;;0.03;0.03;;;6.40;99.90;;;;;;5091237;28;20729;-84
2022/11/19 03:24:31;;;;;;;0.10;0.10;;;6.50;99.90;;;;;;5104304;28;20176;-84
2022/11/19 03:27:03;;;;;;;2.33;2.23;;;6.70;99.90;;;;;;5099691;28;20225;-85
2022/11/19 03:29:33;;;;;;;0.10;0.10;;;6.40;99.90;;;;;;5087120;28;20181;-84
2022/11/19 03:32:08;;;;;;;0.10;0.10;;;6.10;99.90;;;;;;5103656;28;20224;-84
2022/11/19 03:34:36;;;;;;;0.10;0.10;;;5.90;99.90;;;;;;5101387;28;20167;-84
2022/11/19 03:37:05;;;;;;;0.10;0.10;;;5.90;99.90;;;;;;5091229;28;20173;-85
2022/11/19 03:39:34;;;;;;;0.00;0.00;;;5.90;99.90;;;;;;5080896;28;20183;-84
2022/11/19 03:42:01;;;;;;;0.10;0.10;;;5.80;99.90;;;;;;5101818;28;20202;-85
2022/11/19 03:44:42;;;;;;;0.00;0.00;;;5.80;99.90;;;;;;5095646;28;20177;-84
2022/11/19 03:47:12;;;;;;;0.00;0.00;;;5.60;99.90;;;;;;5099752;28;20667;-85
2022/11/19 03:49:43;;;;;;;0.10;0.10;;;5.70;99.90;;;;;;5094407;28;20197;-84
2022/11/19 03:52:14;;;;;;;0.10;0.10;;;5.70;99.90;;;;;;5097163;28;20211;-85
2022/11/19 03:54:40;;;;;;;0.00;0.00;;;5.70;99.90;;;;;;5092921;28;20737;-85
2022/11/19 03:57:08;;;;;;;0.10;0.10;;;5.70;99.90;;;;;;5095470;28;20287;-84
2022/11/19 03:59:33;;;;;;;0.10;0.10;;;5.80;99.90;;;;;;5104995;27;20272;-85
2022/11/19 04:02:02;;;;;;;0.10;0.10;;;6.00;99.90;;;;;;5096579;28;20204;-85
2022/11/19 04:04:37;;;;;;;0.00;0.00;;;5.70;99.90;;;;;;5107455;28;20188;-85
2022/11/19 04:07:06;;;;;;;0.10;0.10;;;5.80;99.90;;;;;;5089759;28;20176;-84
2022/11/19 04:09:32;;;;;;;0.10;0.10;;;5.50;99.90;;;;;;5094594;28;20170;-85
2022/11/19 04:11:58;;;;;;;0.10;0.10;;;5.40;99.90;;;;;;5094074;28;20427;-85
2022/11/19 04:14:23;;;;;;;0.10;0.10;;;5.20;99.90;;;;;;5100041;28;20176;-85
2022/11/19 04:16:49;;;;;;;0.10;0.10;;;5.10;99.90;;;;;;5083259;28;20180;-85
2022/11/19 04:19:16;;;;;;;0.00;0.00;;;5.10;99.90;;;;;;5107156;28;20675;-85
2022/11/19 04:21:42;;;;;;;0.10;0.10;;;5.00;99.90;;;;;;5088520;28;20195;-85
2022/11/19 04:24:08;;;;;;;0.10;0.10;;;5.20;99.90;;;;;;5091374;28;20183;-85
2022/11/19 04:26:33;;;;;;;0.00;0.00;;;4.90;99.90;;;;;;5080690;28;20250;-84
2022/11/19 04:28:59;;;;;;;0.10;0.10;;;4.70;99.90;;;;;;5101514;28;20183;-85
2022/11/19 04:31:24;;;;;;;0.10;0.10;;;4.80;99.90;;;;;;5097642;28;20208;-84
2022/11/19 04:33:50;;;;;;;0.03;0.03;;;4.70;99.90;;;;;;5098964;28;20190;-84
2022/11/19 04:36:15;;;;;;;0.10;0.10;;;4.70;99.90;;;;;;5094877;28;20186;-85
2022/11/19 04:38:41;;;;;;;0.03;0.03;;;4.60;99.90;;;;;;5081470;28;20180;-85
2022/11/19 04:41:07;;;;;;;0.10;0.10;;;4.50;99.90;;;;;;5094862;28;20202;-85
2022/11/19 04:43:32;;;;;;;0.00;0.00;;;4.50;99.90;;;;;;5108242;28;20224;-84
2022/11/19 04:45:58;;;;;;;0.00;0.00;;;4.60;99.90;;;;;;5095618;28;20183;-84
2022/11/19 04:48:23;;;;;;;0.00;0.00;;;4.40;99.90;;;;;;5094158;28;20554;-85
2022/11/19 04:50:49;;;;;;;0.07;0.07;;;4.40;99.90;;;;;;5096893;28;20717;-85
2022/11/19 04:53:14;;;;;;;0.10;0.10;;;4.40;99.90;;;;;;5104080;28;20190;-84
2022/11/19 04:55:40;;;;;;;0.10;0.10;;;4.30;99.90;;;;;;5087467;28;20196;-85
2022/11/19 04:58:06;;;;;;;0.07;0.07;;;4.30;99.90;;;;;;5104466;28;20196;-84
2022/11/19 05:00:31;;;;;;;0.10;0.10;;;4.30;99.90;;;;;;5080261;28;20653;-85
2022/11/19 05:02:57;;;;;;;0.10;0.10;;;4.50;99.90;;;;;;5091696;28;20648;-85
2022/11/19 05:05:22;;;;;;;0.03;0.03;;;4.70;99.90;;;;;;5095945;28;20185;-85
2022/11/19 05:07:48;;;;;;;0.10;0.10;;;4.60;99.90;;;;;;5091156;28;20690;-84
2022/11/19 05:10:13;;;;;;;0.00;0.00;;;4.60;99.90;;;;;;5094550;28;20673;-85
2022/11/19 05:12:39;;;;;;;0.00;0.00;;;4.50;99.90;;;;;;5107619;28;20232;-85
2022/11/19 05:15:05;;;;;;;0.10;0.10;;;4.50;99.90;;;;;;5095701;28;20673;-85
2022/11/19 05:17:30;;;;;;;0.10;0.10;;;4.40;99.90;;;;;;5103708;28;20180;-84
2022/11/19 05:19:58;;;;;;;0.10;0.10;;;4.30;99.90;;;;;;5093333;28;20621;-85
2022/11/19 05:22:24;;;;;;;0.10;0.10;;;4.20;99.90;;;;;;5112958;28;20203;-84
2022/11/19 05:24:50;;;;;;;0.00;0.00;;;4.20;99.90;;;;;;5105608;28;20213;-85
2022/11/19 05:27:15;;;;;;;0.10;0.10;;;4.30;99.90;;;;;;5109286;28;20178;-85
2022/11/19 05:29:41;;;;;;;0.00;0.00;;;4.20;99.90;;;;;;5089973;28;20192;-85
2022/11/19 05:32:06;;;;;;;0.10;0.10;;;4.10;99.90;;;;;;5109764;28;20186;-84
2022/11/19 05:34:32;;;;;;;0.10;0.10;;;4.10;99.90;;;;;;5107460;28;20232;-85
2022/11/19 05:36:57;;;;;;;0.00;0.00;;;4.20;99.90;;;;;;5095200;28;20181;-85
2022/11/19 05:39:23;;;;;;;0.10;0.10;;;4.20;99.90;;;;;;5103514;28;20192;-84
2022/11/19 05:41:49;;;;;;;0.10;0.10;;;4.00;99.90;;;;;;5104922;28;20242;-85
2022/11/19 05:44:14;;;;;;;0.00;0.00;;;4.10;99.90;;;;;;5098767;28;20179;-84
2022/11/19 05:46:40;;;;;;;0.10;0.10;;;4.00;99.90;;;;;;5103017;28;20654;-85
2022/11/19 05:49:05;;;;;;;0.00;0.00;;;3.90;99.90;;;;;;5095952;28;20193;-84
2022/11/19 05:51:31;;;;;;;0.10;0.10;;;4.00;99.90;;;;;;5107478;28;20207;-84
2022/11/19 05:53:56;;;;;;;0.00;0.00;;;4.00;99.90;;;;;;5101121;28;20648;-85
2022/11/19 05:56:22;;;;;;;0.07;0.07;;;3.90;99.90;;;;;;5108248;28;20558;-84
2022/11/19 05:58:47;;;;;;;0.10;0.10;;;3.80;99.90;;;;;;5090968;28;20216;-84
2022/11/19 06:01:14;;;;;;;0.00;0.00;;;3.80;99.90;;;;;;5108562;28;20207;-85
2022/11/19 06:03:40;;;;;;;0.10;0.10;;;3.70;99.90;;;;;;5084493;28;20183;-85
2022/11/19 06:06:06;;;;;;;0.10;0.10;;;3.60;99.90;;;;;;5099993;28;20184;-84
2022/11/19 06:08:32;;;;;;;0.10;0.10;;;3.50;99.90;;;;;;5104489;28;20174;-84
2022/11/19 06:11:00;;;;;;;0.10;0.10;;;3.40;99.90;;;;;;5110204;28;20584;-85
2022/11/19 06:13:25;;;;;;;0.00;0.00;;;3.40;99.90;;;;;;5081754;28;20237;-85
2022/11/19 06:15:57;;;;;;;0.10;0.10;;;3.50;99.90;;;;;;5094415;28;20183;-84
2022/11/19 06:18:23;;;;;;;0.10;0.10;;;3.50;99.90;;;;;;5100016;28;20183;-85
2022/11/19 06:20:48;;;;;;;0.10;0.10;;;3.60;99.90;;;;;;5093116;28;20213;-83
2022/11/19 06:23:14;;;;;;;0.10;0.10;;;3.60;99.90;;;;;;5098289;28;20193;-85
2022/11/19 06:25:39;;;;;;;0.00;0.00;;;3.60;99.90;;;;;;5085560;28;20178;-85
2022/11/19 06:28:05;;;;;;;0.00;0.00;;;3.40;99.90;;;;;;5093593;28;20179;-84
2022/11/19 06:30:30;;;;;;;0.00;0.00;;;3.50;99.90;;;;;;5109885;28;20286;-84
2022/11/19 06:32:56;;;;;;;0.00;0.00;;;3.50;99.90;;;;;;5091654;28;20262;-85
2022/11/19 06:35:21;;;;;;;0.10;0.10;;;3.50;99.90;;;;;;5107115;28;20727;-84
2022/11/19 06:37:47;;;;;;;0.10;0.10;;;3.60;99.90;;;;;;5088700;28;20194;-85
2022/11/19 06:40:13;;;;;;;0.10;0.10;;;3.50;99.90;;;;;;5099066;28;20221;-84
2022/11/19 06:42:38;;;;;;;0.00;0.00;;;3.30;99.90;;;;;;5085351;28;20208;-84
2022/11/19 06:45:10;;;;;;;0.00;0.00;;;3.30;99.90;;;;;;5093482;28;20553;-85
2022/11/19 06:47:37;;;;;;;0.00;0.00;;;3.20;99.90;;;;;;5102544;28;20199;-85
2022/11/19 06:50:04;;;;;;;0.10;0.10;;;3.20;99.90;;;;;;5093722;28;20200;-85
2022/11/19 06:52:29;;;;;;;0.00;0.00;;;3.20;99.90;;;;;;5102421;28;20186;-84
2022/11/19 06:54:55;;;;;;;0.10;0.10;;;3.30;99.90;;;;;;5092637;28;20587;-84
2022/11/19 06:57:21;;;;;;;0.10;0.10;;;3.30;99.90;;;;;;5094897;28;20198;-84
2022/11/19 06:59:46;;;;;;;0.10;0.10;;;3.30;99.90;;;;;;5092637;28;20256;-85
2022/11/19 07:02:12;;;;;;;0.10;0.10;;;3.20;99.90;;;;;;5105859;28;20237;-84
2022/11/19 07:04:38;;;;;;;0.10;0.10;;;3.20;99.90;;;;;;5104778;28;20182;-85
2022/11/19 07:07:04;;;;;;;0.10;0.10;;;3.20;99.90;;;;;;5093256;28;20189;-85
2022/11/19 07:09:29;;;;;;;0.10;0.10;;;3.20;99.90;;;;;;5093894;28;20679;-84
2022/11/19 07:11:55;;;;;;;0.10;0.10;;;3.30;99.90;;;;;;5089699;28;20195;-85
2022/11/19 07:14:20;;;;;;;0.00;0.00;;;3.20;99.90;;;;;;5103291;28;20272;-85
2022/11/19 07:16:46;;;;;;;0.00;0.00;;;3.20;99.90;;;;;;5098903;28;20182;-85
2022/11/19 07:19:11;;;;;;;0.00;0.00;;;3.10;99.90;;;;;;5093425;28;20178;-84
2022/11/19 07:21:37;;;;;;;0.10;0.10;;;3.00;99.90;;;;;;5085694;28;20264;-85
2022/11/19 07:24:05;;;;;;;0.00;0.00;;;3.00;99.90;;;;;;5088849;28;20177;-84
2022/11/19 07:26:32;;;;;;;0.00;0.00;;;3.10;99.90;;;;;;5102000;28;20186;-85
2022/11/19 07:29:00;;;;;;;0.10;0.10;;;3.20;99.90;;;;;;5086180;28;20192;-84
2022/11/19 07:31:27;;;;;;;0.10;0.10;;;3.20;99.90;;;;;;5103794;28;20565;-84
2022/11/19 07:33:52;;;;;;;0.00;0.00;;;3.20;99.90;;;;;;5085101;28;20212;-84
2022/11/19 07:36:18;;;;;;;0.07;0.07;;;3.20;99.90;;;;;;5094062;28;20183;-83
2022/11/19 07:38:44;;;;;;;0.10;0.10;;;3.20;99.90;;;;;;5099157;28;20181;-85
2022/11/19 07:43:54;;;;;;;0.00;0.00;;;3.30;99.90;;;;;;5105782;28;20324;-84
2022/11/19 07:46:20;;;;;;;0.00;0.00;;;3.30;99.90;;;;;;5088739;28;20185;-85
2022/11/19 07:48:46;;;;;;;0.00;0.00;;;3.30;99.90;;;;;;5095709;28;20261;-84
2022/11/19 07:51:11;;;;;;;0.97;0.97;;;3.30;99.90;;;;;;5093511;28;20207;-84
2022/11/19 07:53:37;;;;;;;0.10;0.10;;;3.10;99.90;;;;;;5101266;28;20209;-84
2022/11/19 07:56:03;;;;;;;0.00;0.00;;;3.20;99.90;;;;;;5103746;28;20206;-84
2022/11/19 07:58:28;;;;;;;0.00;0.00;;;3.30;99.90;;;;;;5090316;28;20658;-84
2022/11/19 08:00:54;;;;;;;23.77;21.83;;;3.20;99.90;;;;;;5105453;28;20205;-84
2022/11/19 08:03:19;;;;;;;0.00;0.00;;;3.10;99.90;;;;;;5079498;28;20636;-85
2022/11/19 08:05:45;;;;;;;0.10;0.10;;;3.00;99.90;;;;;;5090027;28;20671;-86
2022/11/19 08:08:10;;;;;;;0.10;0.10;;;3.00;99.90;;;;;;5080736;28;20274;-84
2022/11/19 08:10:36;;;;;;;0.10;0.10;;;2.90;99.90;;;;;;5092142;28;20278;-83
2022/11/19 08:13:02;;;;;;;0.00;0.00;;;2.90;99.90;;;;;;5079840;28;20240;-83
2022/11/19 08:15:31;;;;;;;0.00;0.00;;;3.00;99.90;;;;;;5098444;28;20193;-83
2022/11/19 08:18:12;;;;;;;0.10;0.10;;;2.90;99.90;;;;;;5105076;28;20190;-83
2022/11/19 08:20:42;;;;;;;0.00;0.00;;;2.80;99.90;;;;;;5099060;28;20255;-83
2022/11/19 08:23:09;;;;;;;0.10;0.10;;;2.90;99.90;;;;;;5102326;28;20210;-83
2022/11/19 08:25:34;;;;;;;0.10;0.10;;;2.80;99.90;;;;;;5096173;28;20176;-83
2022/11/19 08:28:01;;;;;;;0.00;0.00;;;2.80;99.90;;;;;;5096893;28;20183;-84
2022/11/19 08:30:28;;;;;;;0.00;0.00;;;2.80;99.90;;;;;;5103088;28;20576;-83
2022/11/19 08:32:53;;;;;;;0.10;0.10;;;2.70;99.90;;;;;;5074390;28;20190;-83
2022/11/19 08:35:19;;;;;;;0.00;0.00;;;2.60;99.90;;;;;;5104667;28;20276;-83
2022/11/19 08:37:46;;;;;;;0.00;0.00;;;2.50;99.90;;;;;;5086828;28;20179;-84
2022/11/19 08:40:11;;;;;;;0.10;0.10;;;2.50;99.90;;;;;;5105092;28;20235;-83
2022/11/19 08:45:21;;;;;;;0.10;0.10;;;2.50;99.90;;;;;;5106503;28;20688;-86
2022/11/19 08:47:47;;;;;;;0.00;0.00;;;2.60;99.90;;;;;;5103067;28;20177;-86
2022/11/19 08:50:12;;;;;;;0.10;0.10;;;2.60;99.90;;;;;;5089654;28;20203;-84
2022/11/19 08:52:38;;;;;;;0.10;0.10;;;2.60;99.90;;;;;;5101414;28;20186;-83
2022/11/19 08:55:04;;;;;;;0.10;0.10;;;2.70;99.90;;;;;;5090643;28;20680;-84
2022/11/19 08:57:30;;;;;;;0.07;0.07;;;2.70;99.90;;;;;;5092030;28;20191;-84
2022/11/19 08:59:55;;;;;;;0.10;0.10;;;2.60;99.90;;;;;;5079704;28;20209;-83
2022/11/19 09:02:21;;;;;;;0.00;0.00;;;2.60;99.90;;;;;;5092651;28;20205;-83
2022/11/19 09:04:46;;;;;;;0.00;0.00;;;2.50;99.90;;;;;;5089383;28;20188;-84
2022/11/19 09:07:12;;;;;;;0.00;0.00;;;2.60;99.90;;;;;;5093385;28;20188;-84
2022/11/19 09:09:37;;;;;;;0.10;0.10;;;2.60;99.90;;;;;;5092788;28;20205;-83
2022/11/19 09:12:03;;;;;;;0.07;0.07;;;2.60;99.90;;;;;;5092361;28;20229;-84
2022/11/19 09:14:28;;;;;;;0.00;0.00;;;2.50;99.90;;;;;;5105708;28;20221;-84
2022/11/19 09:16:54;;;;;;;0.07;0.07;;;2.30;99.90;;;;;;5085865;28;20556;-84
2022/11/19 09:19:20;;;;;;;0.00;0.00;;;2.20;99.90;;;;;;5096310;28;20262;-84
2022/11/19 09:21:45;;;;;;;0.10;0.10;;;2.20;99.90;;;;;;5103704;28;20312;-83
2022/11/19 09:24:11;;;;;;;0.10;0.10;;;2.10;99.90;;;;;;5090613;28;20693;-84
2022/11/19 09:26:36;;;;;;;0.10;0.10;;;2.20;99.90;;;;;;5101640;28;20268;-84
2022/11/19 09:29:02;;;;;;;0.10;0.10;;;2.30;99.90;;;;;;5102932;28;20200;-83
2022/11/19 09:31:27;;;;;;;0.03;0.03;;;2.40;99.90;;;;;;5096557;28;20211;-84
2022/11/19 09:33:54;;;;;;;0.03;0.03;;;2.50;99.90;;;;;;5099039;28;20189;-84
2022/11/19 09:36:20;;;;;;;0.10;0.10;;;2.60;99.90;;;;;;5105199;28;20277;-83
2022/11/19 09:38:46;;;;;;;0.00;0.00;;;2.70;99.90;;;;;;5089468;28;20217;-84
2022/11/19 09:41:33;;;;;;;0.00;0.00;;;2.80;99.90;;;;;;5096332;28;20206;-84
2022/11/19 09:44:23;;;;;;;0.07;0.07;;;2.80;99.90;;;;;;5094676;28;20181;-83
2022/11/19 09:47:01;;;;;;;0.10;0.10;;;3.00;99.90;;;;;;5072994;28;20197;-84
2022/11/19 09:49:37;;;;;;;0.10;0.10;;;3.20;99.90;;;;;;5104722;28;20189;-83
2022/11/19 09:52:08;;;;;;;0.10;0.10;;;3.20;99.90;;;;;;5103345;28;20181;-84
2022/11/19 09:54:40;;;;;;;0.00;0.00;;;3.10;99.90;;;;;;5088953;28;20590;-84
2022/11/19 09:57:12;;;;;;;0.10;0.10;;;3.10;99.90;;;;;;5101967;28;20289;-84
2022/11/19 09:59:39;;;;;;;0.00;0.00;;;3.10;99.90;;;;;;5097397;28;20195;-84
2022/11/19 10:02:26;;;;;;;0.10;0.10;;;3.30;99.90;;;;;;5099252;28;20195;-83
2022/11/19 10:04:52;;;;;;;0.10;0.10;;;3.70;99.90;;;;;;5081409;28;20277;-84
2022/11/19 10:07:29;;;;;;;0.10;0.10;;;3.60;99.90;;;;;;5095026;28;20251;-83
2022/11/19 10:10:15;;;;;;;0.00;0.00;;;3.70;99.90;;;;;;5097017;28;20224;-83
2022/11/19 10:13:10;;;;;;;0.10;0.10;;;3.80;99.90;;;;;;5096585;28;20264;-83
2022/11/19 10:15:51;;;;;;;0.03;0.03;;;4.10;99.90;;;;;;5089374;28;20186;-84
2022/11/19 10:18:37;;;;;;;0.00;0.00;;;4.50;99.90;;;;;;5091856;28;20180;-83
2022/11/19 10:21:10;;;;;;;0.00;0.00;;;4.50;99.90;;;;;;5084405;28;20568;-84
2022/11/19 10:23:53;;;;;;;0.00;0.00;;;4.30;99.90;;;;;;5094357;28;20254;-83
2022/11/19 10:26:29;;;;;;;0.10;0.10;;;4.00;99.90;;;;;;5079567;28;20261;-84
2022/11/19 10:28:56;;;;;;;0.00;0.00;;;4.00;99.90;;;;;;5101335;28;20199;-84
2022/11/19 10:31:34;;;;;;;0.00;0.00;;;4.00;99.90;;;;;;5089502;28;20508;-84
2022/11/19 10:34:15;;;;;;;0.10;0.10;;;4.10;99.90;;;;;;5094880;28;20181;-84
2022/11/19 10:36:44;;;;;;;0.00;0.00;;;3.80;99.90;;;;;;5092086;28;20172;-84
2022/11/19 10:39:17;;;;;;;0.50;0.50;;;3.90;99.90;;;;;;5097685;28;20177;-84
2022/11/19 10:41:59;;;;;;;0.10;0.10;;;3.80;99.90;;;;;;5088189;28;20222;-85
2022/11/19 10:44:45;;;;;;;0.10;0.10;;;3.70;99.90;;;;;;5085028;28;20254;-84
2022/11/19 10:47:33;;;;;;;0.10;0.10;;;3.80;99.90;;;;;;5107399;28;20183;-84
2022/11/19 10:49:59;;;;;;;0.10;0.10;;;3.60;99.90;;;;;;5093201;28;21624;-84
2022/11/19 10:52:33;;;;;;;0.00;0.00;;;3.80;99.90;;;;;;5099048;28;20184;-84
2022/11/19 10:55:22;;;;;;;0.03;0.03;;;3.70;99.90;;;;;;5094998;28;20184;-84
2022/11/19 10:57:51;;;;;;;0.00;0.00;;;3.80;99.90;;;;;;5099044;28;21845;-85
2022/11/19 11:00:17;;;;;;;0.10;0.10;;;3.70;99.90;;;;;;5102115;28;20282;-84
2022/11/19 11:02:56;;;;;;;0.10;0.10;;;3.60;99.90;;;;;;5097891;28;20340;-84
2022/11/19 11:05:21;;;;;;;0.00;0.00;;;3.50;99.90;;;;;;5100965;28;20183;-84
2022/11/19 11:07:53;;;;;;;0.00;0.00;;;3.60;99.90;;;;;;5102320;28;20229;-85
2022/11/19 11:10:41;;;;;;;0.10;0.10;;;3.60;99.90;;;;;;5086447;28;20211;-84
2022/11/19 11:16:17;;;;;;;0.00;0.00;;;3.50;99.90;;;;;;5100931;28;20235;-85
2022/11/19 11:18:44;;;;;;;0.10;0.10;;;3.50;99.90;;;;;;5100358;28;20178;-84
2022/11/19 11:21:27;;;;;;;0.10;0.10;;;3.60;99.90;;;;;;5092636;28;20199;-85
2022/11/19 11:23:54;;;;;;;0.10;0.10;;;3.70;99.90;;;;;;5100863;28;20655;-84
2022/11/19 11:26:26;;;;;;;0.10;0.10;;;3.70;99.90;;;;;;5108432;28;20663;-85
2022/11/19 11:29:04;;;;;;;0.03;0.03;;;3.70;99.90;;;;;;5097577;28;20211;-85
2022/11/19 11:31:34;;;;;;;0.10;0.10;;;3.90;99.90;;;;;;5100636;28;20203;-85
2022/11/19 11:34:01;;;;;;;0.10;0.10;;;4.00;99.90;;;;;;5101997;28;20201;-84
2022/11/19 11:36:29;;;;;;;0.00;0.00;;;3.80;99.90;;;;;;5102519;28;20183;-85
2022/11/19 11:38:58;;;;;;;0.00;0.00;;;3.80;99.90;;;;;;5103472;28;20172;-85
2022/11/19 11:41:36;;;;;;;0.10;0.10;;;3.70;99.90;;;;;;5105409;28;20298;-85
2022/11/19 11:44:14;;;;;;;0.10;0.10;;;3.60;99.90;;;;;;5090345;28;20182;-86
2022/11/19 11:46:43;;;;;;;0.10;0.10;;;3.60;99.90;;;;;;5097765;28;20268;-85
2022/11/19 11:49:30;;;;;;;0.00;0.00;;;3.50;99.90;;;;;;5089790;28;20262;-84
2022/11/19 11:52:08;;;;;;;0.10;0.10;;;3.60;99.90;;;;;;5092429;28;20763;-85
2022/11/19 11:54:35;;;;;;;0.10;0.10;;;3.60;99.90;;;;;;5096260;28;20274;-84
2022/11/19 11:57:23;;;;;;;0.10;0.10;;;3.60;99.90;;;;;;5089051;28;20232;-85
2022/11/19 11:59:48;;;;;;;0.10;0.10;;;3.60;99.90;;;;;;5095511;28;20288;-85
2022/11/19 12:02:22;;;;;;;0.10;0.10;;;3.50;99.90;;;;;;5081506;28;20290;-84
2022/11/19 12:04:49;;;;;;;0.10;0.10;;;3.60;99.90;;;;;;5098620;28;20211;-84
2022/11/19 12:07:24;;;;;;;0.07;0.07;;;3.50;99.90;;;;;;5102767;28;20269;-84
2022/11/19 12:10:06;;;;;;;0.00;0.00;;;3.70;99.90;;;;;;5095337;28;20241;-84
2022/11/19 12:12:41;;;;;;;0.00;0.00;;;3.50;99.90;;;;;;5103242;28;20182;-84
2022/11/19 12:15:39;;;;;;;0.10;0.10;;;3.60;99.90;;;;;;5097775;28;20553;-85
2022/11/19 12:18:19;;;;;;;0.10;0.10;;;3.70;99.90;;;;;;5051540;28;20247;-84
2022/11/19 12:21:05;;;;;;;0.10;0.10;;;3.50;99.90;;;;;;5092244;28;20284;-84
2022/11/19 12:24:04;;;;;;;0.10;0.10;;;3.70;99.90;;;;;;5108387;28;20176;-85
2022/11/19 12:26:41;;;;;;;0.10;0.10;;;3.70;99.90;;;;;;5093778;28;20176;-85
2022/11/19 12:29:13;;;;;;;0.10;0.10;;;3.40;99.90;;;;;;5091982;28;20186;-85
2022/11/19 12:32:20;;;;;;;0.10;0.10;;;3.30;99.90;;;;;;5093052;28;20766;-84
2022/11/19 12:34:49;;;;;;;0.10;0.10;;;3.40;99.90;;;;;;5090085;28;20247;-85
2022/11/19 12:37:31;;;;;;;5.10;1.60;;;3.40;99.90;;;;;;5089168;28;20214;-85
2022/11/19 12:40:12;;;;;;;0.10;0.10;;;3.30;99.90;;;;;;5096989;28;20242;-85
2022/11/19 12:43:13;;;;;;;0.10;0.10;;;3.40;99.90;;;;;;5118222;27;20206;-84
2022/11/19 12:46:08;;;;;;;0.10;0.10;;;3.30;99.90;;;;;;5066677;28;20211;-84
2022/11/19 12:48:43;;;;;;;0.43;0.43;;;3.30;99.90;;;;;;5096718;28;20177;-84
2022/11/19 12:51:18;;;;;;;0.10;0.10;;;3.30;99.90;;;;;;5099432;28;20266;-85
2022/11/19 12:54:26;;;;;;;0.10;0.10;;;3.40;99.90;;;;;;5097154;28;20682;-85
2022/11/19 12:57:35;;;;;;;0.00;0.00;;;3.30;99.90;;;;;;5092598;28;20835;-84
2022/11/19 13:00:17;;;;;;;0.10;0.10;;;3.40;99.90;;;;;;5095870;28;20203;-85
2022/11/19 13:02:58;;;;;;;0.00;0.00;;;3.40;99.90;;;;;;5091678;28;20187;-85
2022/11/19 13:05:33;;;;;;;0.00;0.00;;;3.40;99.90;;;;;;5088918;28;20183;-84
2022/11/19 13:08:07;;;;;;;0.10;0.10;;;3.50;99.90;;;;;;5099519;28;20167;-85
2022/11/19 13:10:39;;;;;;;0.10;0.10;;;3.50;99.90;;;;;;5095681;28;20192;-84
2022/11/19 13:13:10;;;;;;;0.00;0.00;;;3.40;99.90;;;;;;5083293;28;20183;-84
2022/11/19 13:15:53;;;;;;;0.10;0.10;;;3.50;99.90;;;;;;5094060;28;20663;-84
2022/11/19 13:18:20;;;;;;;0.10;0.10;;;3.50;99.90;;;;;;5100036;28;20186;-85
2022/11/19 13:20:48;;;;;;;0.10;0.10;;;3.40;99.90;;;;;;5091840;28;20289;-84
2022/11/19 13:23:23;;;;;;;0.03;0.03;;;3.40;99.90;;;;;;5102288;28;20297;-85
2022/11/19 13:26:20;;;;;;;0.10;0.10;;;3.50;99.90;;;;;;5093645;28;20205;-84
2022/11/19 13:29:01;;;;;;;0.00;0.00;;;3.40;99.90;;;;;;5083933;28;20178;-85
2022/11/19 13:31:55;;;;;;;0.10;0.10;;;3.30;99.90;;;;;;5088505;28;20260;-84
2022/11/19 13:34:48;;;;;;;0.10;0.10;;;3.30;99.90;;;;;;5103933;28;20197;-84
2022/11/19 13:37:21;;;;;;;0.00;0.00;;;3.20;99.90;;;;;;5109962;28;20188;-84